Top 250   5 MHz   UTC   Spotter   Comment  
XE2JS   5357.0   18 Jan 06:04   XE2CQ   CQing FT8
EA3KU   5357.0   18 Jan 05:16   XE2JS   DL68WQ<>JN00JV -8 CQ
KD0ZZ   5357.5   18 Jan 04:12   ZS6WN   FT8
KA8OAT   5357.5   18 Jan 04:09   ZS6WN   FT8
KE3JP   5357.5   18 Jan 04:05   ZS6WN   FT8
S51DX   5357.4   18 Jan 03:51   ZS6WN   FT8
HC2AO   5357.0   18 Jan 02:22   VU2CPL   -15 here
VU2CPL   5357.0   18 Jan 02:17   HC2AO   ft8 loud
VU2CPL   5357.0   18 Jan 02:17   W2OR   FT8 CQ CQ 2250
VU2BGS   5357.0   18 Jan 02:16   HC2AO   ft8 loud
WL7N   5359.2   18 Jan 01:23   WB4X  
CT1EAV   5357.0   18 Jan 00:48   XE2CQ   FT8
VU2CPL   5357.0   18 Jan 00:36   LX1DA   FT8
CU3AK   5357.0   18 Jan 00:33   WA3ERQ   FT8
HC2AO   5357.0   18 Jan 00:30   LX1DA   FT8 Tu QSL
ON7GB   5357.0   18 Jan 00:26   WA3ERQ   FT8
DL3JJ   5357.0   18 Jan 00:24   XE2CQ   FT8
HC2AO   5357.0   18 Jan 00:24   XE2CQ   CQing FT8
I3MLU   5357.0   18 Jan 00:24   XE2CQ   FT8
ON8GB   5357.0   18 Jan 00:23   XE2CQ   CQing FT8
CU3AK   5357.0   18 Jan 00:21   XE2CQ   CQing FT8
CX2CQ   5357.0   18 Jan 00:21   LX1DA   FT8
9G5AR   5357.0   18 Jan 00:21   XE2CQ   CQing FT8
CXCQ   5357.0   18 Jan 00:21   LX1DA   FT8
9G5AR   5357.0   18 Jan 00:15   LX1DA   FT8
VP8EME   5357.0   18 Jan 00:10   LX1DA   FT8
CU3AK   5358.5   17 Jan 23:56   W3KB   FT8
PP5BK   5357.0   17 Jan 23:55   LX1DA   FT8
LA5TFA   5357.0   17 Jan 23:42   HB9RLO   FT8 jn47kn JP99KQ -06 15w Wire
EA3KU   5357.9   17 Jan 23:15   K4KZY  
CU3AK   5358.2   17 Jan 23:10   K4KZY  
CU3AK   5357.0   17 Jan 22:28   LX1DA   FT8
W3BTX   5357.0   17 Jan 20:48   LZ2DF   FT8 -11 dB 1247 Hz
EA6/DK1XAM   5357.0   17 Jan 20:48   LZ2DF   FT8 -11 dB 2081 Hz
OH1LWZ   5357.0   17 Jan 20:47   LZ2DF   FT8 -14 dB 407 Hz
W3BTX   5358.3   17 Jan 20:40   OH1LWZ   FT8
LZ2RR   5357.0   17 Jan 19:34   DL1PI   tnx ft8 qso
S56CKU   5357.0   17 Jan 19:33   DL1PI   tnx ft8 qso
S57AC   5353.0   17 Jan 19:30   SM3PZG  
IW9GXT   5357.0   17 Jan 19:28   DL1PI   tnx ft8 qso
IU2GGD   5357.0   17 Jan 18:53   DL4MFF   JN57IW<>JN45OQ tnx ft8
OH0KCE   5358.3   17 Jan 18:45   OH1LWZ   FT8
IW6CAE   5357.0   17 Jan 18:24   IW6CAE   ASTRONUTI + COLUMBIA info IQ6KX
9H1PI   5357.0   17 Jan 18:16   IK4PLW   FT8
9H1PI   5357.0   17 Jan 18:16   IK4PLW  
DL5NDH   5357.0   17 Jan 18:11   TA2K   FT8(-14-14 ) 73
SP9MQU   5357.0   17 Jan 18:08   TA2K   FT8(-13-13 ) 73
PE0MVJ   5357.0   17 Jan 18:05   TA2K   FT8(-07-12 ) 73
OG2M   5357.0   17 Jan 18:01   TA2K   FT8( -12-08) 73
DL5ASK   5357.0   17 Jan 17:56   TA2K   FT8(-13-18 ) 73
OT8S   5357.0   17 Jan 17:54   TA2K   FT8(-16-21 ) 73
DG0FE   5357.0   17 Jan 17:53   TA2K   FT8( -19-14) 73
LA5TFA   5357.0   17 Jan 17:22   LZ2DF   FT8 -17 dB 1192 Hz
IU0BNG   5357.0   17 Jan 17:21   LZ2DF   FT8 -12 dB 835 Hz
IZ8OFO   5357.0   17 Jan 17:21   LZ2DF   FT8 -2 dB 1787 Hz
IU2FDU   5363.0   17 Jan 16:25   IS0FRV   73 luigi
IS0FRV   5363.0   17 Jan 16:23   IU2FDU   73 e grazie di tutto
IS0GTF   5363.0   17 Jan 16:23   IU2FDU   73 e grazie di tutto
IK8YBE   5357.0   17 Jan 16:16   IZ1TMR   Tnx FT8 QSO (-24db) TU 73
DH9IAT   5357.0   17 Jan 15:49   IZ1TMR   Tnx FT8 QSO -03db 73 TU
IC8CQF   5354.0   17 Jan 15:33   S57AC   Lino Capi isl
4U73B   5300.0   17 Jan 15:20   OG1X   Ignore test
IS0FRV   5363.0   17 Jan 14:27   IM0FMP   ssb
S57MPU   5363.0   17 Jan 14:13   S57AC   hvala Marko
YB9AY   5362.0   17 Jan 14:02   PG0DX   looking fr ZL -9 in PA
IZ1ANK   5357.0   17 Jan 12:32   DF1KG   FT8
M0MPM   5357.0   17 Jan 12:22   DF1KG  
GM4COX/P   5403.5   17 Jan 11:05   SV2HSY   Sota GM/SS-188.Op.Jack
I4WQH   5357.0   17 Jan 09:40   DL1PI   tnx ft8 qso
DL4IB   5357.0   17 Jan 09:36   DL1PI   tnx ft8 qso
DH2LAB   5357.0   17 Jan 09:34   DL1PI   tnx ft8 qso
EI4KF   5362.0   17 Jan 08:51   ZL2IFB   ZL spot freq 5362
EI4KF   5362.0   17 Jan 08:50   ZL2IFB   Im on 5362
EI4KF   5362.0   17 Jan 08:47   ZL2IFB   Copy U on 5357
LU8ENU   5362.0   17 Jan 08:45   ZL2IFB   Hr you on 5357
OZ5AGJ   5357.0   17 Jan 08:41   DL1PI   tnx ft8 qso
ZL2IFB   5262.0   17 Jan 08:36   OG2M   FT8 -16
OZ1W   5362.0   17 Jan 08:35   ZL2IFB   FT8 Tnx
OG2M   5362.0   17 Jan 08:14   ZL2IFB   FT8
DH8IAT   5361.0   17 Jan 08:14   ZL2IFB   FT8
SM7DLK   5362.0   17 Jan 08:08   ZL2IFB   FT8 :-)
OH1LT   5362.0   17 Jan 08:07   ZL2IFB   FT8
ZL2IFB   5362.0   17 Jan 08:06   SM0BRF   ft8 -17
SM0BRF   5361.0   17 Jan 07:57   ZL2IFB   FT8
KY7M   5357.0   17 Jan 04:41   PG0DX   1425hz odd, upto -10dB
ZS2ACP   5357.0   17 Jan 04:36   WA6NHC   Calling but no takers FT8
XE2CQ   5357.0   17 Jan 04:31   PG0DX   471hz cq
W5VE   5359.5   17 Jan 04:29   ZS6WN   FT8
KY7M   5359.5   17 Jan 04:20   ZS6WN   FT8
WD0FRY   5359.5   17 Jan 04:18   ZS6WN   FT8
ZS2ACP   5357.0   17 Jan 04:15   PG0DX   2257 even -9dB CQ (tnxqso)
K8BJC/4   5359.5   17 Jan 04:10   ZS6WN   FT8
KL1T   5359.5   17 Jan 04:05   ZS6WN   FT8
NN4T   5359.5   17 Jan 03:44   ZS6WN   FT8
9K2YM   5357.0   17 Jan 02:54   N6PAT   FT8 tnx 73 from New York
N6AR   5358.4   17 Jan 00:13   ON8ON   FT8 CQn R-8 into attic inV
W1JHU   5358.8   16 Jan 23:58   ON8ON   FT8 CQn R-15 into Indoor Attic inV
K1HTV   5357.5   16 Jan 23:55   ON8ON   FT8 CQn R-3 into attic inV
K1HTV   5357.0   16 Jan 23:38   ON5PU   fm18 tnx ft8
N0FW   5357.0   16 Jan 23:38   EA3EYO   FT8 Tnx fer QSO Peter
N0FW   5357.0   16 Jan 23:34   ON5PU   em79 tnx ft8
K1HTV   5357.3   16 Jan 23:30   ON8ON   FT8 CQn R-10 into attic inV
VU2CPL   5357.0   16 Jan 23:06   LX1DA   FT8
K8AXX   5357.0   16 Jan 23:02   ON5PU   tnx ft8 qso...73
AE5X   5357.0   16 Jan 22:59   XE2JS   DL68WQ<>EM20JB TU 73
WX2CX   5357.0   16 Jan 22:55   IZ0MIO   FT8 -14db
VE1VOX   5357.0   16 Jan 22:52   HB9RLO   ft8 jn47kn FN85II 15W -07 tnx qso
VE1YX   5357.0   16 Jan 22:49   IZ0MIO   FT8 -08db
K4PI   5357.0   16 Jan 22:47   IZ0MIO   FT8 -07db
W1JHU   5357.0   16 Jan 22:44   HB9RLO   ft8 jn47kn EL89UB 15w -15 tzn
EA3EYO   5357.0   16 Jan 22:41   IZ0MIO   FT8 -09db
W3KIT   5357.0   16 Jan 22:36   IZ0MIO   FT8 -01db
DF7DC   5357.0   16 Jan 22:34   HG8LXL   FT8 -02dB from JO31 1688Hz
W3KIT   5357.0   16 Jan 22:33   HB9FAX   ft8 +02 tnx 73
PA0LDZ   5357.0   16 Jan 22:32   HG8LXL   FT8 +01dB from JO21 1688Hz
DJ0QO   5357.0   16 Jan 22:30   HG8LXL   FT8 -01dB from JN39 1688Hz
DL2KV   5357.0   16 Jan 22:29   HG8LXL   FT8 +10dB from JO42 1688Hz
G4USI   5357.0   16 Jan 22:27   HG8LXL   FT8 -10dB 1688Hz
5B4ALX   5358.4   16 Jan 22:06   ON8ON   FT8 CQn R-18 on indoor attic inV
LA3ZA   5357.0   16 Jan 22:01   HG8LXL   FT8 -07dB from JO59 2255Hz
DL2HRE   5357.0   16 Jan 21:57   HG8LXL   FT8 +08dB from JO51 1124Hz
PA0HWB   5357.0   16 Jan 21:53   HG8LXL   FT8 +06dB from JO21 1855Hz
VU2CPL   5353.0   16 Jan 21:48   IK7JTF   cq cw
DL5SD   5357.0   16 Jan 21:43   HG8LXL   FT8 +00dB from JO62 397Hz
DL1HAZ   5357.0   16 Jan 21:41   HG8LXL   FT8 -05dB from JO43 1179Hz
EA1AST   5357.0   16 Jan 21:40   HG8LXL   FT8 -13dB from IN73 1125Hz
DL1NEO   5357.0   16 Jan 21:33   HG8LXL   FT8 +03dB from JN59 1125Hz
ZB2GI   5357.6   16 Jan 21:31   ON8ON   FT8 CQn R-10 into Attic inV
TA0LKJ   5358.1   16 Jan 21:03   DM2AUO   FT8 tu fb qso 73
DL8WYJ   5357.5   16 Jan 19:48   4X1UF   Tnx QSO & pls E-QSL
HA9HAF9A   5357.0   16 Jan 19:38   HB9DWR   FT8 Hungarian Army FT8 TNX 73
HA9HAF9A   5358.0   16 Jan 19:17   HA5CBM   FT8, Spec amateur callsignes in the Hungarian Army
EA5WU   5357.0   16 Jan 19:15   LA5WJA   ft8 tnx
IS0GFT   5358.8   16 Jan 19:14   LZ2TU   FT8
DF13DEJU   5353.0   16 Jan 18:07   DM2TO   SES 100 Junkers F13
HB9DGV/P   5353.0   16 Jan 15:59   DL2YBG   SOTA HB/BE-112
MM0AUP   5357.0   16 Jan 15:46   MM0PHG   5 watts qrp from eu-009
DR10WCA   5357.4   16 Jan 15:45   DL1PI   QSX 3573.00 tnx fer FT8 QSO !
HB9DGV/P   5353.0   16 Jan 15:41   DL8DXL   cq ...
YB9AY   5357.0   16 Jan 14:38   PA3DJY   You are -13 pse cfm
YB9AY   5357.0   16 Jan 14:33   DK8YY   CQing .. FT8
YB9BCS   5357.0   16 Jan 13:32   K6EID   OI71 R-21
HB9DGV/P   5353.0   16 Jan 11:30   DF7IS   SOTA
S57MPU   5353.0   16 Jan 11:13   S57AC  
GB50WAB   5398.5   16 Jan 11:10   G0BVD  
HC2AO   5357.0   16 Jan 10:48   HC2AO   +1005 nee YB
3D2AG   5357.0   16 Jan 08:10   KX4WB  
DF2UU   5357.0   16 Jan 07:59   KX4WB  
ZL4OL   5362.0   16 Jan 07:59   SM0BRF   FT8 -13
DK2PH   5357.0   16 Jan 07:54   KX4WB  
HC2AO   5357.0   16 Jan 07:29   HC2AO   qsx 362 for zl
3D2AG   5357.0   16 Jan 07:26   ON7NQ   FT8
ZL4OL   5362.0   16 Jan 07:18   HC2AO   r u still arnd?
HC2AO   5357.0   16 Jan 07:18   DL4ZAB   FT8 gd sigs!
ZL2IFB   5362.0   16 Jan 06:56   PG0DX   split 5357 cq -15dB
EA7AFA   5353.7   16 Jan 06:52   EA7AIN  
PG0DX   5362.0   16 Jan 06:45   ZL2IFB   FT8
ZL4OL   5362.0   16 Jan 06:18   PG0DX   828hz odd (15/45) cq -19dB
HC2AO   5357.0   16 Jan 04:59   K6PO   FT8 1429 Hz CQ
S51DX   5357.0   16 Jan 04:27   W4HG   FT8
HC2AO   5358.8   16 Jan 01:22   N0UMF  
UK9AA   5357.0   16 Jan 01:21   WB9Z   FT8 nice -16
HC2AO   5358.5   16 Jan 01:13   WB4X  
S57X   5357.9   16 Jan 01:09   WB4X  
9G5AR   5357.0   16 Jan 00:59   XE2CQ   CQing FT8
UK9AA   5357.0   16 Jan 00:53   K4ESE  
CO6CG   5357.0   15 Jan 22:57   EA5WO   FT8 tnx qso
EA6/DK1XAM   5358.0   15 Jan 20:43   CT1EEB  
IW6CAE   5357.0   15 Jan 20:17   IW6CAE   FT8 Award Astronauti nel Mondo
DF13DEJU   5352.3   15 Jan 20:07   DM2TO   SES Junkers F13
9A2AA   5357.0   15 Jan 20:06   LZ7MM   TNX FT8
IK0MHR   5355.0   15 Jan 19:53   HA3PV  
9A2AA   5359.0   15 Jan 19:51   LZ2TU   FT8
IT9NVA   5353.7   15 Jan 19:47   EA7AIN  
DL5DXS   5354.0   15 Jan 19:47   HA3PV  
IT9NVA   5353.5   15 Jan 19:37   HA3PV  
HF100WW   5357.0   15 Jan 18:31   SP5UAM   FT8 TNX 73 AWARD LAST MINUTE
S53JW   5354.0   15 Jan 18:18   DM5JL   tnx qso Marjan
SQ9EJ   5357.0   15 Jan 18:13   LZ7MM   TNX FT8
OM3EY   5353.0   15 Jan 18:08   DM5JL   tnx qso dr Edo
4O4A   5359.1   15 Jan 18:04   LZ2TU   FT8
OM3EY   5353.0   15 Jan 17:45   IV3HAX   CW
UT7ZA   5357.0   15 Jan 17:09   DL4MFF   JN57IW<>KN57OT tnx ft8
VU2BGS   5357.0   15 Jan 16:23   IZ3KIF   tx-19 rx -20 Tks for New
YB6DE   5358.0   15 Jan 16:10   YD6DEV   FT8
YB9QP   5357.0   15 Jan 15:29   IK5ACO  
LA2LFA   5300.0   15 Jan 14:56   OG1X   Tnx QSL Andy
YE1AR   5358.0   15 Jan 10:26   YD1UVW   CQing
DK2PH   5357.0   15 Jan 10:08   DG5EM   tnx for the FT8 qso, 73
DL7SLB   5357.0   15 Jan 10:06   DG5EM   tnx for the FT8 qso, 73
IW2ETR   5357.0   15 Jan 10:05   DG5EM   tnx for the FT8 qso, 73
S51DX   5357.0   15 Jan 07:34   DG5EM   tnx for the FT8 qso, 73
I2MHR   5357.0   15 Jan 07:30   DG5EM   tnx for the FT8 qso, 73
OZ1QX   5362.0   15 Jan 06:58   ZL2IFB   FT8 CQ ZL
EA5FX   5353.0   15 Jan 06:31   EA5KK   cq qsx 5373.0
OZ1W   5363.8   15 Jan 06:23   ZL2CC   gm
DL4ZAB   5363.8   15 Jan 06:23   ZL2CC   gm
PG0DX   5363.8   15 Jan 06:23   ZL2CC   gm
IZ8HXG   5363.8   15 Jan 06:22   ZL2CC   cq zl
NN6XX   5359.5   15 Jan 04:29   ZS6WN   FT8
K2DSW   5359.5   15 Jan 04:24   ZS6WN   FT8
W0BV   5359.5   15 Jan 04:22   ZS6WN   FT8
LW7EDH   5359.5   15 Jan 04:20   ZS6WN   FT8
DL5WG   5357.5   15 Jan 03:39   ZS6WN   FT8
EV1P/2/A   5359.4   15 Jan 02:11   N1ADJ   FT8 5ocean AFARU ARCK
KA5WOO   5357.0   15 Jan 01:05   WA2HIP   FT8
DJ4MM   5358.8   15 Jan 00:49   N4NT  
KG5HCT   5403.5   14 Jan 23:53   NY5S   DM65VA<>
K5NA   5359.3   14 Jan 23:52   ZS6WN   FT8
KB8VAO   5359.3   14 Jan 23:47   ZS6WN   FT8
KF5GG   5403.5   14 Jan 23:46   NY5S   DM65VA<>
PP5BK   5359.3   14 Jan 23:44   ZS6WN   FT8
BG9NJY   5357.0   14 Jan 23:44   LX1DA   FT8 sry wrong call b-4
N0FW   5359.3   14 Jan 23:42   ZS6WN   FT8
BG9JNY   5357.0   14 Jan 23:40   LX1DA   FT8
LU8HF   5359.3   14 Jan 23:40   ZS6WN   FT8
VP8EME   5357.0   14 Jan 23:00   LX1DA   F8 Tu NOB
PY7DJ   5357.0   14 Jan 22:37   LX1DA   FT8
W3WTE   5357.0   14 Jan 22:23   EA5WO   FT8 -18db tnx qso
SO5WD   5357.0   14 Jan 21:22   HG8LXL   FT8 +00dB from JO55 2252Hz
NS7K   5357.0   14 Jan 21:22   N7DPX   DM54AD<ES>DN31 TNX
IU2ICJ   5357.0   14 Jan 21:20   HG8LXL   FT8 -16dB from JN44 971Hz
DF8NE   5357.0   14 Jan 21:17   HG8LXL   FT8 +04dB from JN59 971Hz
5P1KZX   5357.0   14 Jan 21:14   HG8LXL   FT8 +01dB from JO55 2278Hz
DL6LIM   5357.0   14 Jan 21:11   HG8LXL   FT8 +04dB from JO44 232Hz
SP6EFY   5357.0   14 Jan 21:09   HG8LXL   FT8 +08dB from JO81 1038Hz
G4DBW   5357.0   14 Jan 21:08   HG8LXL   FT8 +08dB from JO01 403Hz
PE1POI   5357.0   14 Jan 21:07   HG8LXL   FT8 +02dB from JO21 971Hz
DK7ZT   5357.0   14 Jan 21:05   HG8LXL   FT8 +02dB from JO40 971Hz
EW3LN   5355.4   14 Jan 20:35   HA3PV  
ZS6WN   5357.0   14 Jan 20:23   G0BNR   Sri No Cfm Pse try later
G0BNR   5359.3   14 Jan 20:19   ZS6WN   FT8
4X1TI   5357.0   14 Jan 20:04   LA5WJA   ft8 hny tnx qso 73
EY8MM   5357.0   14 Jan 20:01   LA5WJA   ft8
EA6NB   5355.0   14 Jan 18:54   HA4XG   CQ
Z39A   5356.0   14 Jan 17:50   EA5FZJ   FT8 73 TNX
VU2CPL   5357.0   14 Jan 17:46   LX1DA   FT8
GM7GAX   5356.0   14 Jan 17:30   EA5FZJ   FT8 TNX 73
IT9FSH   5357.0   14 Jan 13:46   HG8LXL   FT8 -05dB from JM77 1481Hz
IT9YAF   5363.0   14 Jan 08:11   IS0FRV   ...TX.59
G4PVM   5354.5   14 Jan 08:03   EI2VRR   CQ CW
HC2AO   5357.0   14 Jan 08:00   EA4AFP   -8 to -12 steady
ZL4OL   5362.0   14 Jan 07:39   SM0BRF   FT8
MM0SJH   5357.0   14 Jan 07:18   HC2AO   tu Steve HNY
HC2AO   5357.0   14 Jan 07:07   SP5ENA  
VA3HP   5357.0   14 Jan 07:06   DG5EM   tnx for the FT8 qso, 73
LZ1LZ   5357.0   14 Jan 07:02   DG5EM   tnx for the FT8 qso, 73
ZL4OL   5362.8   14 Jan 07:01   ZL2CC  
K4KEW   5357.0   14 Jan 06:35   PA2RU  
IZ8HXG   5362.8   14 Jan 06:13   ZL2CC